createdAt,value
2022-12-28T00:00:51.183Z,8.40
2022-12-28T00:01:51.271Z,6.80
2022-12-28T00:02:51.268Z,6.40
2022-12-28T00:03:51.069Z,3.50
2022-12-28T00:04:51.162Z,4.90
2022-12-28T00:05:51.006Z,5.30
2022-12-28T00:06:51.153Z,5.60
2022-12-28T00:07:50.991Z,8.20
2022-12-28T00:08:51.190Z,4.70
2022-12-28T00:09:51.000Z,8.50
2022-12-28T00:11:06.520Z,7.50
2022-12-28T00:11:51.672Z,10.10
2022-12-28T00:12:51.155Z,11.90
2022-12-28T00:13:51.072Z,5.30
2022-12-28T00:14:51.769Z,5.20
2022-12-28T00:15:51.570Z,6.40
2022-12-28T00:16:51.325Z,5.80
2022-12-28T00:17:51.212Z,4.60
2022-12-28T00:18:50.887Z,4.80
2022-12-28T00:19:51.564Z,5.80
2022-12-28T00:20:50.961Z,4.90
2022-12-28T00:21:50.991Z,6.60
2022-12-28T00:22:50.886Z,3.60
2022-12-28T00:23:50.981Z,6.80
2022-12-28T00:24:50.851Z,5.30
2022-12-28T00:25:50.981Z,4.40
2022-12-28T00:26:50.828Z,9.20
2022-12-28T00:27:50.921Z,6.80
2022-12-28T00:28:50.981Z,3.90
2022-12-28T00:29:51.151Z,5.80
2022-12-28T00:30:50.776Z,4.70
2022-12-28T00:31:51.150Z,4.00
2022-12-28T00:32:50.891Z,6.80
2022-12-28T00:33:50.881Z,7.10
2022-12-28T00:34:50.972Z,5.40
2022-12-28T00:35:50.882Z,6.00
2022-12-28T00:37:08.837Z,5.60
2022-12-28T00:37:50.668Z,6.10
2022-12-28T00:38:50.769Z,6.00
2022-12-28T00:39:50.677Z,8.00
2022-12-28T00:40:50.814Z,12.00
2022-12-28T00:41:50.946Z,6.90
2022-12-28T00:42:50.729Z,6.90
2022-12-28T00:43:50.660Z,6.00
2022-12-28T00:44:50.835Z,8.70
2022-12-28T00:45:50.679Z,7.10
2022-12-28T00:46:50.789Z,5.50
2022-12-28T00:47:50.826Z,5.60
2022-12-28T00:48:50.924Z,5.50
2022-12-28T00:49:50.661Z,6.40
2022-12-28T00:50:50.732Z,10.30
2022-12-28T00:51:50.876Z,14.90
2022-12-28T00:52:50.492Z,11.20
2022-12-28T00:53:49.890Z,6.80
2022-12-28T00:54:50.634Z,6.20
2022-12-28T00:55:50.732Z,5.90
2022-12-28T00:56:50.664Z,8.30
2022-12-28T00:57:50.642Z,6.20
2022-12-28T00:58:50.474Z,8.40
2022-12-28T00:59:50.611Z,6.80
2022-12-28T01:00:50.736Z,4.90
2022-12-28T01:01:50.767Z,6.50
2022-12-28T01:02:50.513Z,5.70
2022-12-28T01:03:50.592Z,8.50
2022-12-28T01:04:50.557Z,5.70
2022-12-28T01:05:50.553Z,5.20
2022-12-28T01:06:50.544Z,5.60
2022-12-28T01:07:50.500Z,7.90
2022-12-28T01:08:50.592Z,7.20
2022-12-28T01:09:50.351Z,3.30
2022-12-28T01:10:50.522Z,11.60
2022-12-28T01:11:50.387Z,6.50
2022-12-28T01:12:50.525Z,8.60
2022-12-28T01:13:50.394Z,5.00
2022-12-28T01:14:49.662Z,5.00
2022-12-28T01:15:50.391Z,3.90
2022-12-28T01:16:50.534Z,9.40
2022-12-28T01:17:50.465Z,5.70
2022-12-28T01:18:50.481Z,10.30
2022-12-28T01:19:54.003Z,4.60
2022-12-28T01:20:50.401Z,5.70
2022-12-28T01:21:50.351Z,7.10
2022-12-28T01:22:50.373Z,6.40
2022-12-28T01:23:50.473Z,3.90
2022-12-28T01:24:50.262Z,4.90
2022-12-28T01:25:50.321Z,5.90
2022-12-28T01:26:50.287Z,4.90
2022-12-28T01:27:50.382Z,3.10
2022-12-28T01:28:50.161Z,3.10
2022-12-28T01:29:50.352Z,5.00
2022-12-28T01:30:50.421Z,2.80
2022-12-28T01:31:50.428Z,5.90
2022-12-28T01:32:50.172Z,4.40
2022-12-28T01:33:50.402Z,7.10
2022-12-28T01:34:49.483Z,7.70
2022-12-28T01:35:50.322Z,3.60
2022-12-28T01:36:50.291Z,4.60
2022-12-28T01:37:50.271Z,5.50
2022-12-28T01:38:50.192Z,5.10
2022-12-28T01:39:49.984Z,4.10
2022-12-28T01:40:50.314Z,5.80
2022-12-28T01:41:50.082Z,4.20
2022-12-28T01:42:49.410Z,13.00
2022-12-28T01:43:50.091Z,15.10
2022-12-28T01:44:50.351Z,18.20
2022-12-28T01:45:50.011Z,14.20
2022-12-28T01:46:50.279Z,13.10
2022-12-28T01:47:50.221Z,9.80
2022-12-28T01:48:50.171Z,18.50
2022-12-28T01:49:49.954Z,25.80
2022-12-28T01:50:50.111Z,24.20
2022-12-28T01:51:50.121Z,11.00
2022-12-28T01:52:50.290Z,14.50
2022-12-28T01:53:50.163Z,10.80
2022-12-28T01:54:50.060Z,16.00
2022-12-28T01:55:49.993Z,13.00
2022-12-28T01:56:49.303Z,10.40
2022-12-28T01:57:50.081Z,11.00
2022-12-28T01:58:49.992Z,6.60
2022-12-28T01:59:49.245Z,11.10
2022-12-28T02:00:50.062Z,7.10
2022-12-28T02:01:50.164Z,7.80
2022-12-28T02:02:49.855Z,7.90
2022-12-28T02:03:50.026Z,7.30
2022-12-28T02:04:50.080Z,10.10
2022-12-28T02:05:50.191Z,8.30
2022-12-28T02:06:49.852Z,6.90
2022-12-28T02:07:49.151Z,8.20
2022-12-28T02:08:49.820Z,7.80
2022-12-28T02:10:44.226Z,10.10
2022-12-28T02:10:50.336Z,7.40
2022-12-28T02:11:49.730Z,11.90
2022-12-28T02:12:49.987Z,9.70
2022-12-28T02:13:49.721Z,7.50
2022-12-28T02:14:49.091Z,8.10
2022-12-28T02:15:49.775Z,10.30
2022-12-28T02:16:49.992Z,9.10
2022-12-28T02:17:49.711Z,5.40
2022-12-28T02:18:49.840Z,4.20
2022-12-28T02:19:49.693Z,7.90
2022-12-28T02:20:49.828Z,8.50
2022-12-28T02:21:49.733Z,8.50
2022-12-28T02:22:50.767Z,5.50
2022-12-28T02:23:49.742Z,9.10
2022-12-28T02:24:49.739Z,5.50
2022-12-28T02:25:49.701Z,13.60
2022-12-28T02:26:49.785Z,5.40
2022-12-28T02:27:48.946Z,6.50
2022-12-28T02:28:49.579Z,10.50
2022-12-28T02:29:49.804Z,8.20
2022-12-28T02:30:49.671Z,5.60
2022-12-28T02:31:49.680Z,6.10
2022-12-28T02:32:49.513Z,7.30
2022-12-28T02:33:49.742Z,6.90
2022-12-28T02:34:49.707Z,11.70
2022-12-28T02:35:48.884Z,8.30
2022-12-28T02:36:49.503Z,5.50
2022-12-28T02:37:49.826Z,8.70
2022-12-28T02:38:48.821Z,6.60
2022-12-28T02:39:49.740Z,10.80
2022-12-28T02:40:49.631Z,3.40
2022-12-28T02:41:49.762Z,4.90
2022-12-28T02:42:49.522Z,6.90
2022-12-28T02:43:49.511Z,4.00
2022-12-28T02:44:48.764Z,6.00
2022-12-28T02:45:49.532Z,9.20
2022-12-28T02:46:49.512Z,7.10
2022-12-28T02:47:49.406Z,5.40
2022-12-28T02:48:49.571Z,7.30
2022-12-28T02:49:49.431Z,8.80
2022-12-28T02:50:49.629Z,7.30
2022-12-28T02:51:49.531Z,4.80
2022-12-28T02:52:49.521Z,6.90
2022-12-28T02:53:49.350Z,6.80
2022-12-28T02:54:48.679Z,6.90
2022-12-28T02:55:49.479Z,5.70
2022-12-28T02:56:48.722Z,6.60
2022-12-28T02:57:49.405Z,7.90
2022-12-28T02:58:49.415Z,13.30
2022-12-28T02:59:49.455Z,6.20
2022-12-28T03:00:49.340Z,6.90
2022-12-28T03:01:49.647Z,6.00
2022-12-28T03:02:49.498Z,3.60
2022-12-28T03:03:49.481Z,9.20
2022-12-28T03:04:49.401Z,11.80
2022-12-28T03:05:48.559Z,6.70
2022-12-28T03:06:49.340Z,8.60
2022-12-28T03:07:49.473Z,3.80
2022-12-28T03:08:50.031Z,5.70
2022-12-28T03:09:49.329Z,8.90
2022-12-28T03:10:49.509Z,7.50
2022-12-28T03:11:49.360Z,13.30
2022-12-28T03:12:49.281Z,5.40
2022-12-28T03:13:49.950Z,3.90
2022-12-28T03:14:49.299Z,5.30
2022-12-28T03:15:49.108Z,10.30
2022-12-28T03:16:49.349Z,8.70
2022-12-28T03:17:49.232Z,4.60
2022-12-28T03:18:49.180Z,6.80
2022-12-28T03:19:49.121Z,6.80
2022-12-28T03:20:49.349Z,4.10
2022-12-28T03:21:49.870Z,6.70
2022-12-28T03:22:50.186Z,6.90
2022-12-28T03:23:49.031Z,8.30
2022-12-28T03:24:49.156Z,6.80
2022-12-28T03:25:49.089Z,7.20
2022-12-28T03:26:49.703Z,5.30
2022-12-28T03:27:49.109Z,5.40
2022-12-28T03:28:49.294Z,7.40
2022-12-28T03:29:49.010Z,9.90
2022-12-28T03:30:49.631Z,7.50
2022-12-28T03:31:49.063Z,6.00
2022-12-28T03:32:48.924Z,10.10
2022-12-28T03:33:49.063Z,5.60
2022-12-28T03:34:48.890Z,6.10
2022-12-28T03:35:49.048Z,4.00
2022-12-28T03:36:49.158Z,4.70
2022-12-28T03:37:49.141Z,6.10
2022-12-28T03:38:48.851Z,8.90
2022-12-28T03:39:49.636Z,4.00
2022-12-28T03:40:49.919Z,6.90
2022-12-28T03:41:48.980Z,5.20
2022-12-28T03:42:48.910Z,3.90
2022-12-28T03:43:49.081Z,5.80
2022-12-28T03:44:48.870Z,8.30
2022-12-28T03:45:49.005Z,6.60
2022-12-28T03:46:48.970Z,9.90
2022-12-28T03:47:48.800Z,6.10
2022-12-28T03:48:48.927Z,6.20
2022-12-28T03:49:48.741Z,5.70
2022-12-28T03:50:48.104Z,8.00
2022-12-28T03:51:48.831Z,3.90
2022-12-28T03:52:49.010Z,3.60
2022-12-28T03:53:49.480Z,5.60
2022-12-28T03:54:49.032Z,7.60
2022-12-28T03:55:49.072Z,4.30
2022-12-28T03:56:49.059Z,5.30
2022-12-28T03:57:49.021Z,4.60
2022-12-28T03:58:49.467Z,6.10
2022-12-28T03:59:48.990Z,9.20
2022-12-28T04:00:49.384Z,7.90
2022-12-28T04:01:49.594Z,9.50
2022-12-28T04:02:48.996Z,3.90
2022-12-28T04:03:48.863Z,6.20
2022-12-28T04:04:48.621Z,5.10
2022-12-28T04:05:48.712Z,7.60
2022-12-28T04:06:49.281Z,3.40
2022-12-28T04:07:49.780Z,5.30
2022-12-28T04:08:49.222Z,5.60
2022-12-28T04:09:49.371Z,4.50
2022-12-28T04:10:48.588Z,4.20
2022-12-28T04:11:48.820Z,4.00
2022-12-28T04:12:49.270Z,7.30
2022-12-28T04:13:48.840Z,4.90
2022-12-28T04:14:48.729Z,5.00
2022-12-28T04:15:48.752Z,5.00
2022-12-28T04:16:48.534Z,5.30
2022-12-28T04:17:48.634Z,7.50
2022-12-28T04:18:47.861Z,4.00
2022-12-28T04:19:48.534Z,3.60
2022-12-28T04:20:48.590Z,5.50
2022-12-28T04:21:48.511Z,8.10
2022-12-28T04:22:48.648Z,4.90
2022-12-28T04:23:48.683Z,6.40
2022-12-28T04:24:48.562Z,4.90
2022-12-28T04:25:48.385Z,3.30
2022-12-28T04:26:48.566Z,8.60
2022-12-28T04:27:48.483Z,5.00
2022-12-28T04:28:48.597Z,4.30
2022-12-28T04:29:48.572Z,5.10
2022-12-28T04:30:48.608Z,7.40
2022-12-28T04:31:48.463Z,5.40
2022-12-28T04:32:48.464Z,4.70
2022-12-28T04:33:48.491Z,2.40
2022-12-28T04:34:49.051Z,4.40
2022-12-28T04:35:48.463Z,4.60
2022-12-28T04:36:48.280Z,6.20
2022-12-28T04:37:48.612Z,7.80
2022-12-28T04:38:48.272Z,5.80
2022-12-28T04:39:54.842Z,5.20
2022-12-28T04:40:48.305Z,3.80
2022-12-28T04:41:48.443Z,4.20
2022-12-28T04:42:48.374Z,3.90
2022-12-28T04:43:48.373Z,5.60
2022-12-28T04:44:48.296Z,3.80
2022-12-28T04:45:48.582Z,4.70
2022-12-28T04:46:48.261Z,4.70
2022-12-28T04:47:47.572Z,3.80
2022-12-28T04:48:48.230Z,3.20
2022-12-28T04:49:48.348Z,4.30
2022-12-28T04:50:48.473Z,7.30
2022-12-28T04:51:47.518Z,5.90
2022-12-28T04:52:48.213Z,3.40
2022-12-28T04:53:48.123Z,12.20
2022-12-28T04:54:48.221Z,5.40
2022-12-28T04:55:48.173Z,6.40
2022-12-28T04:56:48.352Z,6.20
2022-12-28T04:57:48.105Z,3.90
2022-12-28T04:58:48.195Z,3.30
2022-12-28T04:59:48.153Z,4.10
2022-12-28T05:00:48.236Z,2.80
2022-12-28T05:01:48.232Z,4.30
2022-12-28T05:02:48.315Z,4.30
2022-12-28T05:03:54.458Z,2.00
2022-12-28T05:04:48.751Z,5.70
2022-12-28T05:05:48.074Z,4.60
2022-12-28T05:06:48.151Z,5.50
2022-12-28T05:07:48.122Z,5.20
2022-12-28T05:08:48.015Z,3.10
2022-12-28T05:09:48.304Z,5.70
2022-12-28T05:10:48.007Z,7.10
2022-12-28T05:11:48.202Z,5.00
2022-12-28T05:12:47.970Z,5.10
2022-12-28T05:13:48.143Z,4.40
2022-12-28T05:14:48.022Z,4.30
2022-12-28T05:15:48.156Z,4.50
2022-12-28T05:16:48.076Z,2.60
2022-12-28T05:17:48.230Z,4.30
2022-12-28T05:18:48.100Z,3.80
2022-12-28T05:19:47.242Z,3.90
2022-12-28T05:20:47.970Z,3.70
2022-12-28T05:21:48.092Z,7.90
2022-12-28T05:22:47.981Z,3.90
2022-12-28T05:23:48.085Z,5.10
2022-12-28T05:24:47.902Z,5.20
2022-12-28T05:25:47.841Z,7.00
2022-12-28T05:26:47.151Z,10.80
2022-12-28T05:27:47.171Z,13.70
2022-12-28T05:28:48.166Z,8.80
2022-12-28T05:29:47.811Z,7.30
2022-12-28T05:30:47.944Z,7.70
2022-12-28T05:31:47.861Z,5.60
2022-12-28T05:32:48.022Z,5.00
2022-12-28T05:33:47.752Z,8.60
2022-12-28T05:34:47.923Z,12.20
2022-12-28T05:35:47.790Z,6.90
2022-12-28T05:36:47.822Z,7.90
2022-12-28T05:37:47.801Z,7.50
2022-12-28T05:38:47.028Z,6.40
2022-12-28T05:39:47.840Z,7.60
2022-12-28T05:40:47.580Z,5.00
2022-12-28T05:41:47.041Z,3.90
2022-12-28T05:42:51.620Z,7.40
2022-12-28T05:43:47.601Z,17.10
2022-12-28T05:44:46.996Z,6.20
2022-12-28T05:45:47.812Z,7.00
2022-12-28T05:46:48.737Z,6.30
2022-12-28T05:47:47.948Z,7.40
2022-12-28T05:48:47.569Z,6.80
2022-12-28T05:49:47.826Z,5.30
2022-12-28T05:50:47.679Z,7.40
2022-12-28T05:51:47.702Z,5.50
2022-12-28T05:52:47.592Z,9.90
2022-12-28T05:53:47.689Z,6.90
2022-12-28T05:54:47.667Z,5.40
2022-12-28T05:55:46.943Z,4.80
2022-12-28T05:56:47.633Z,6.30
2022-12-28T05:57:47.441Z,10.00
2022-12-28T05:58:47.746Z,5.00
2022-12-28T05:59:47.481Z,6.40
2022-12-28T06:00:47.702Z,8.50
2022-12-28T06:01:47.626Z,8.10
2022-12-28T06:02:47.736Z,4.90
2022-12-28T06:03:46.826Z,5.60
2022-12-28T06:04:47.623Z,5.50
2022-12-28T06:05:47.510Z,5.10
2022-12-28T06:06:47.614Z,5.80
2022-12-28T06:07:47.532Z,7.30
2022-12-28T06:08:47.534Z,3.50
2022-12-28T06:09:47.462Z,3.70
2022-12-28T06:10:47.604Z,6.00
2022-12-28T06:11:47.684Z,6.40
2022-12-28T06:12:47.328Z,4.50
2022-12-28T06:13:47.453Z,6.90
2022-12-28T06:14:47.263Z,5.60
2022-12-28T06:15:47.596Z,4.20
2022-12-28T06:16:47.445Z,4.60
2022-12-28T06:17:47.481Z,6.60
2022-12-28T06:18:47.261Z,5.00
2022-12-28T06:19:47.453Z,5.10
2022-12-28T06:20:50.173Z,9.80
2022-12-28T06:21:47.521Z,7.90
2022-12-28T06:22:47.273Z,4.00
2022-12-28T06:23:47.436Z,3.30
2022-12-28T06:24:47.295Z,5.90
2022-12-28T06:25:47.389Z,6.90
2022-12-28T06:26:47.445Z,14.60
2022-12-28T06:27:47.321Z,8.30
2022-12-28T06:28:46.532Z,11.50
2022-12-28T06:29:47.133Z,11.50
2022-12-28T06:30:52.370Z,10.20
2022-12-28T06:31:47.320Z,6.10
2022-12-28T06:32:47.627Z,7.90
2022-12-28T06:33:47.133Z,10.60
2022-12-28T06:34:47.302Z,11.40
2022-12-28T06:35:47.261Z,7.50
2022-12-28T06:36:47.377Z,9.20
2022-12-28T06:37:47.151Z,9.10
2022-12-28T06:38:47.766Z,6.00
2022-12-28T06:39:47.126Z,9.60
2022-12-28T06:41:12.083Z,10.00
2022-12-28T06:41:47.050Z,6.00
2022-12-28T06:42:47.281Z,7.80
2022-12-28T06:43:46.430Z,7.90
2022-12-28T06:44:46.971Z,6.50
2022-12-28T06:45:47.162Z,8.60
2022-12-28T06:46:47.063Z,10.40
2022-12-28T06:47:47.216Z,6.80
2022-12-28T06:48:47.028Z,5.40
2022-12-28T06:49:47.171Z,5.30
2022-12-28T06:50:47.004Z,5.70
2022-12-28T06:51:47.110Z,5.20
2022-12-28T06:52:47.957Z,6.00
2022-12-28T06:53:47.629Z,10.50
2022-12-28T06:54:46.911Z,6.10
2022-12-28T06:55:47.191Z,10.00
2022-12-28T06:56:47.000Z,10.80
2022-12-28T06:57:48.063Z,5.40
2022-12-28T06:58:46.243Z,8.60
2022-12-28T06:59:47.621Z,7.70
2022-12-28T07:00:46.839Z,7.10
2022-12-28T07:01:46.947Z,6.00
2022-12-28T07:02:47.003Z,7.60
2022-12-28T07:03:46.965Z,6.50
2022-12-28T07:04:46.965Z,20.30
2022-12-28T07:05:46.840Z,54.40
2022-12-28T07:06:47.014Z,52.00
2022-12-28T07:07:47.550Z,15.30
2022-12-28T07:08:47.121Z,11.90
2022-12-28T07:09:46.793Z,5.10
2022-12-28T07:10:46.985Z,5.70
2022-12-28T07:11:46.952Z,4.80
2022-12-28T07:12:46.981Z,7.90
2022-12-28T07:13:46.841Z,6.60
2022-12-28T07:14:47.200Z,4.90
2022-12-28T07:15:46.881Z,6.20
2022-12-28T07:16:46.740Z,5.70
2022-12-28T07:17:46.802Z,6.60
2022-12-28T07:18:46.033Z,5.80
2022-12-28T07:19:46.881Z,6.50
2022-12-28T07:20:46.831Z,4.00
2022-12-28T07:21:46.991Z,6.30
2022-12-28T07:22:46.951Z,6.20
2022-12-28T07:23:46.811Z,8.40
2022-12-28T07:24:46.632Z,6.40
2022-12-28T07:25:46.831Z,4.40
2022-12-28T07:26:47.120Z,6.80
2022-12-28T07:27:46.996Z,3.50
2022-12-28T07:28:46.640Z,8.00
2022-12-28T07:29:46.840Z,5.20
2022-12-28T07:30:46.801Z,5.50
2022-12-28T07:31:46.530Z,8.50
2022-12-28T07:32:46.649Z,8.40
2022-12-28T07:33:46.491Z,7.00
2022-12-28T07:34:46.663Z,11.70
2022-12-28T07:35:46.572Z,8.90
2022-12-28T07:36:46.631Z,7.90
2022-12-28T07:37:46.740Z,9.60
2022-12-28T07:38:46.681Z,5.60
2022-12-28T07:39:46.511Z,7.80
2022-12-28T07:40:46.661Z,5.30
2022-12-28T07:41:46.149Z,11.80
2022-12-28T07:42:46.601Z,6.60
2022-12-28T07:43:45.783Z,7.60
2022-12-28T07:44:49.095Z,7.90
2022-12-28T07:45:46.538Z,6.60
2022-12-28T07:46:46.730Z,6.80
2022-12-28T07:47:46.541Z,6.50
2022-12-28T07:48:46.510Z,13.90
2022-12-28T07:49:46.996Z,5.40
2022-12-28T07:50:47.060Z,4.70
2022-12-28T07:51:46.509Z,7.00
2022-12-28T07:52:46.358Z,4.60
2022-12-28T07:53:46.579Z,5.10
2022-12-28T07:54:46.283Z,5.90
2022-12-28T07:55:46.489Z,8.60
2022-12-28T07:56:46.314Z,8.20
2022-12-28T07:57:46.450Z,5.10
2022-12-28T07:59:17.474Z,5.40
2022-12-28T08:00:17.828Z,7.00
2022-12-28T08:01:18.190Z,7.60
2022-12-28T08:02:18.046Z,7.40
2022-12-28T08:03:17.790Z,10.20
2022-12-28T08:04:17.962Z,12.00
2022-12-28T08:05:17.789Z,21.60
2022-12-28T08:06:18.604Z,23.50
2022-12-28T08:07:17.738Z,29.70
2022-12-28T08:08:18.052Z,44.10
2022-12-28T08:09:17.140Z,41.50
2022-12-28T08:10:19.971Z,28.20
2022-12-28T08:11:18.176Z,30.90
2022-12-28T08:12:17.316Z,20.00
2022-12-28T08:13:18.111Z,21.00
2022-12-28T08:14:17.005Z,15.20
2022-12-28T08:15:17.012Z,15.80
2022-12-28T08:16:17.976Z,14.30
2022-12-28T08:17:20.945Z,12.00
2022-12-28T08:18:17.869Z,14.40
2022-12-28T08:19:17.738Z,16.70
2022-12-28T08:20:17.569Z,15.60
2022-12-28T08:21:17.708Z,10.00
2022-12-28T08:22:17.615Z,9.10
2022-12-28T08:23:18.439Z,13.40
2022-12-28T08:24:17.534Z,21.10
2022-12-28T08:25:17.676Z,24.10
2022-12-28T08:26:17.632Z,20.20
2022-12-28T08:27:18.055Z,20.40
2022-12-28T08:28:17.558Z,21.70
2022-12-28T08:29:17.654Z,20.10
2022-12-28T08:30:17.541Z,26.00
2022-12-28T08:31:17.740Z,28.30
2022-12-28T08:32:17.758Z,21.30
2022-12-28T08:33:18.420Z,17.30
2022-12-28T08:34:18.401Z,22.90
2022-12-28T08:35:17.309Z,17.30
2022-12-28T08:36:17.588Z,17.40
2022-12-28T08:37:17.583Z,23.00
2022-12-28T08:38:17.504Z,19.00
2022-12-28T08:39:17.492Z,12.60
2022-12-28T08:40:17.631Z,13.80
2022-12-28T08:41:17.433Z,15.80
2022-12-28T08:42:17.557Z,14.40
2022-12-28T08:43:17.550Z,10.10
2022-12-28T08:44:17.684Z,14.60
2022-12-28T08:45:17.600Z,14.70
2022-12-28T08:46:17.646Z,8.00
2022-12-28T08:47:16.828Z,10.30
2022-12-28T08:48:17.405Z,12.40
2022-12-28T08:49:16.841Z,11.60
2022-12-28T08:50:20.061Z,11.50
2022-12-28T08:51:17.449Z,14.80
2022-12-28T08:52:17.285Z,11.80
2022-12-28T08:53:17.923Z,15.60
2022-12-28T08:54:17.883Z,10.90
2022-12-28T08:55:17.540Z,8.10
2022-12-28T08:56:17.253Z,8.00
2022-12-28T08:57:17.499Z,11.40
2022-12-28T08:58:17.290Z,8.70
2022-12-28T08:59:17.392Z,8.10
2022-12-28T09:00:17.316Z,8.60
2022-12-28T09:01:18.308Z,5.20
2022-12-28T09:02:17.847Z,4.90
2022-12-28T09:03:17.449Z,11.90
2022-12-28T09:04:18.125Z,7.40
2022-12-28T09:05:17.339Z,7.80
2022-12-28T09:06:17.201Z,5.50
2022-12-28T09:07:17.245Z,4.60
2022-12-28T09:08:17.231Z,13.00
2022-12-28T09:09:17.165Z,5.50
2022-12-28T09:10:17.279Z,8.50
2022-12-28T09:11:17.273Z,5.10
2022-12-28T09:12:17.217Z,4.90
2022-12-28T09:13:17.083Z,7.40
2022-12-28T09:14:24.849Z,5.10
2022-12-28T09:15:17.802Z,7.40
2022-12-28T09:16:17.250Z,18.60
2022-12-28T09:17:17.111Z,8.20
2022-12-28T09:18:17.551Z,12.50
2022-12-28T09:19:17.210Z,7.70
2022-12-28T09:20:17.301Z,7.20
2022-12-28T09:21:17.042Z,6.80
2022-12-28T09:22:17.133Z,3.90
2022-12-28T09:23:17.215Z,8.50
2022-12-28T09:24:16.938Z,6.00
2022-12-28T09:25:17.061Z,5.50
2022-12-28T09:26:16.948Z,4.70
2022-12-28T09:27:17.171Z,4.20
2022-12-28T09:28:16.949Z,3.00
2022-12-28T09:29:17.060Z,5.30
2022-12-28T09:30:16.939Z,4.40
2022-12-28T09:31:17.262Z,7.60
2022-12-28T09:32:16.922Z,5.40
2022-12-28T09:33:17.028Z,4.30
2022-12-28T09:34:36.016Z,3.90
2022-12-28T09:35:17.243Z,2.90
2022-12-28T09:36:16.208Z,6.20
2022-12-28T09:37:16.972Z,5.10
2022-12-28T09:38:16.924Z,3.90
2022-12-28T09:39:16.791Z,3.20
2022-12-28T09:40:16.950Z,5.80
2022-12-28T09:41:16.809Z,5.60
2022-12-28T09:42:16.986Z,3.70
2022-12-28T09:43:16.860Z,7.40
2022-12-28T09:44:16.922Z,5.30
2022-12-28T09:45:16.736Z,5.30
2022-12-28T09:46:16.178Z,5.10
2022-12-28T09:47:17.654Z,4.30
2022-12-28T09:48:16.602Z,2.70
2022-12-28T09:49:16.794Z,6.40
2022-12-28T09:50:16.870Z,3.00
2022-12-28T09:51:16.722Z,4.50
2022-12-28T09:52:16.959Z,3.40
2022-12-28T09:53:16.742Z,4.30
2022-12-28T09:54:16.919Z,3.20
2022-12-28T09:55:16.709Z,4.50
2022-12-28T09:56:16.700Z,4.80
2022-12-28T09:57:15.965Z,21.80
2022-12-28T09:58:16.699Z,5.10
2022-12-28T09:59:17.540Z,6.30
2022-12-28T10:00:16.958Z,4.80
2022-12-28T10:01:18.159Z,6.90
2022-12-28T10:02:16.818Z,6.00
2022-12-28T10:03:17.335Z,4.00
2022-12-28T10:04:18.029Z,4.60
2022-12-28T10:05:15.960Z,3.70
2022-12-28T10:06:16.579Z,8.10
2022-12-28T10:07:16.056Z,3.20
2022-12-28T10:08:16.507Z,5.10
2022-12-28T10:09:15.923Z,6.90
2022-12-28T10:10:16.559Z,6.00
2022-12-28T10:11:17.091Z,4.90
2022-12-28T10:12:16.569Z,3.50
2022-12-28T10:13:45.559Z,5.10
2022-12-28T10:14:17.212Z,3.50
2022-12-28T10:15:15.832Z,4.80
2022-12-28T10:16:17.238Z,7.50
2022-12-28T10:17:16.456Z,6.00
2022-12-28T10:18:16.556Z,4.30
2022-12-28T10:19:17.080Z,3.80
2022-12-28T10:20:16.524Z,4.30
2022-12-28T10:21:16.652Z,4.10
2022-12-28T10:22:16.520Z,6.90
2022-12-28T10:23:16.436Z,5.30
2022-12-28T10:24:32.904Z,8.80
2022-12-28T10:25:17.269Z,3.90
2022-12-28T10:26:16.601Z,6.70
2022-12-28T10:27:17.526Z,6.30
2022-12-28T10:28:16.230Z,5.60
2022-12-28T10:29:16.545Z,3.60
2022-12-28T10:30:16.258Z,2.60
2022-12-28T10:31:16.510Z,3.80
2022-12-28T10:32:16.340Z,4.40
2022-12-28T10:33:17.157Z,6.30
2022-12-28T10:34:17.627Z,2.70
2022-12-28T10:35:16.792Z,3.90
2022-12-28T10:36:16.270Z,3.10
2022-12-28T10:37:16.484Z,5.80
2022-12-28T10:38:16.560Z,3.70
2022-12-28T10:39:16.361Z,6.40
2022-12-28T10:40:16.264Z,8.10
2022-12-28T10:41:17.102Z,5.90
2022-12-28T10:42:16.430Z,4.80
2022-12-28T10:43:16.351Z,3.20
2022-12-28T10:44:45.767Z,6.20
2022-12-28T10:45:16.370Z,6.00
2022-12-28T10:46:16.369Z,4.20
2022-12-28T10:47:16.320Z,4.40
2022-12-28T10:48:16.658Z,6.80
2022-12-28T10:49:16.150Z,3.60
2022-12-28T10:50:36.699Z,6.70
2022-12-28T10:51:16.121Z,3.90
2022-12-28T10:52:16.191Z,5.60
2022-12-28T10:53:16.264Z,6.90
2022-12-28T10:54:16.271Z,7.90
2022-12-28T10:55:16.124Z,6.60
2022-12-28T11:03:21.900Z,5.00
2022-12-28T11:03:28.314Z,6.40
2022-12-28T11:03:33.494Z,5.40
2022-12-28T11:04:34.115Z,7.50
2022-12-28T11:05:34.019Z,5.40
2022-12-28T11:06:34.260Z,5.90
2022-12-28T11:07:34.020Z,5.30
2022-12-28T11:08:34.645Z,5.10
2022-12-28T11:09:34.089Z,3.80
2022-12-28T11:10:34.096Z,5.20
2022-12-28T11:11:34.599Z,5.00
2022-12-28T11:12:34.652Z,3.50
2022-12-28T11:13:33.997Z,7.80
2022-12-28T11:14:33.899Z,7.90
2022-12-28T11:15:34.028Z,7.10
2022-12-28T11:16:33.960Z,8.60
2022-12-28T11:17:33.979Z,6.30
2022-12-28T11:18:37.931Z,7.70
2022-12-28T11:19:34.214Z,6.20
2022-12-28T11:20:33.969Z,8.50
2022-12-28T11:21:34.163Z,6.40
2022-12-28T11:22:34.820Z,5.40
2022-12-28T11:23:34.062Z,4.30
2022-12-28T11:24:39.343Z,5.40
2022-12-28T11:25:34.001Z,4.00
2022-12-28T11:26:33.838Z,4.60
2022-12-28T11:27:33.927Z,6.30
2022-12-28T11:28:33.875Z,6.80
2022-12-28T11:29:34.239Z,7.90
2022-12-28T11:30:33.814Z,6.70
2022-12-28T11:31:33.853Z,4.30
2022-12-28T11:32:34.230Z,11.40
2022-12-28T11:33:33.711Z,2.90
2022-12-28T11:34:33.813Z,4.90
2022-12-28T11:35:33.749Z,5.40
2022-12-28T11:36:33.958Z,4.70
2022-12-28T11:37:33.681Z,5.20
2022-12-28T11:38:33.929Z,5.20
2022-12-28T11:39:33.759Z,8.20
2022-12-28T11:40:33.810Z,3.70
2022-12-28T11:41:34.258Z,4.40
2022-12-28T11:42:41.633Z,4.70
2022-12-28T11:43:33.749Z,3.60
2022-12-28T11:44:33.520Z,4.40
2022-12-28T11:45:33.846Z,6.90
2022-12-28T11:46:33.668Z,4.90
2022-12-28T11:47:33.927Z,9.30
2022-12-28T11:48:33.834Z,3.40
2022-12-28T11:49:33.680Z,3.80
2022-12-28T11:50:33.529Z,2.50
2022-12-28T11:51:33.854Z,4.50
2022-12-28T11:52:33.529Z,9.20
2022-12-28T11:53:33.732Z,6.10
2022-12-28T11:54:34.011Z,6.90
2022-12-28T11:55:34.011Z,5.60
2022-12-28T11:56:33.529Z,3.90
2022-12-28T11:57:33.634Z,3.60
2022-12-28T11:58:33.597Z,5.00
2022-12-28T11:59:33.864Z,4.20
2022-12-28T12:00:33.479Z,6.90
2022-12-28T12:01:33.401Z,4.20
2022-12-28T12:02:33.630Z,6.50
2022-12-28T12:03:33.420Z,6.10
2022-12-28T12:04:33.576Z,8.00
2022-12-28T12:05:33.776Z,5.80
2022-12-28T12:06:38.363Z,6.40
2022-12-28T12:07:33.960Z,6.60
2022-12-28T12:08:33.520Z,4.40
2022-12-28T12:09:33.681Z,4.70
2022-12-28T12:10:34.194Z,3.80
2022-12-28T12:11:33.802Z,6.60
2022-12-28T12:12:33.444Z,6.50
2022-12-28T12:13:33.381Z,5.30
2022-12-28T12:14:33.541Z,5.40
2022-12-28T12:15:33.484Z,6.90
2022-12-28T12:16:33.388Z,4.80
2022-12-28T12:17:36.877Z,5.80
2022-12-28T12:18:33.323Z,11.40
2022-12-28T12:19:33.530Z,9.10
2022-12-28T12:20:33.240Z,6.70
2022-12-28T12:21:33.541Z,5.70
2022-12-28T12:22:33.210Z,3.90
2022-12-28T12:23:33.669Z,6.80
2022-12-28T12:24:33.244Z,5.00
2022-12-28T12:25:33.640Z,4.00
2022-12-28T12:26:33.260Z,5.70
2022-12-28T12:27:33.399Z,5.70
2022-12-28T12:28:33.587Z,5.80
2022-12-28T12:29:33.410Z,6.10
2022-12-28T12:30:33.407Z,5.40
2022-12-28T12:31:33.224Z,5.20
2022-12-28T12:32:33.170Z,10.90
2022-12-28T12:33:33.050Z,8.70
2022-12-28T12:34:33.309Z,8.60
2022-12-28T12:35:33.146Z,16.50
2022-12-28T12:36:33.200Z,10.80
2022-12-28T12:37:33.168Z,9.00
2022-12-28T12:38:33.551Z,7.80
2022-12-28T12:39:33.279Z,9.70
2022-12-28T12:40:33.289Z,6.40
2022-12-28T12:41:33.227Z,7.60
2022-12-28T12:42:33.280Z,9.40
2022-12-28T12:43:33.103Z,8.60
2022-12-28T12:44:33.474Z,5.90
2022-12-28T12:45:33.052Z,6.70
2022-12-28T12:46:33.320Z,9.30
2022-12-28T12:47:33.086Z,11.00
2022-12-28T12:48:32.969Z,8.50
2022-12-28T12:49:33.157Z,8.60
2022-12-28T12:50:32.860Z,6.70
2022-12-28T12:51:33.081Z,11.50
2022-12-28T12:52:33.857Z,24.20
2022-12-28T12:53:34.060Z,15.60
2022-12-28T12:54:33.570Z,9.40
2022-12-28T12:55:33.580Z,8.30
2022-12-28T12:56:32.869Z,12.50
2022-12-28T12:57:33.020Z,10.90
2022-12-28T12:58:33.921Z,13.70
2022-12-28T12:59:33.210Z,17.20
2022-12-28T13:00:32.930Z,16.10
2022-12-28T13:01:33.140Z,13.00
2022-12-28T13:02:33.659Z,11.60
2022-12-28T13:03:32.800Z,14.80
2022-12-28T13:04:33.500Z,17.60
2022-12-28T13:05:32.716Z,9.60
2022-12-28T13:06:33.488Z,10.00
2022-12-28T13:07:32.776Z,14.70
2022-12-28T13:08:32.917Z,9.40
2022-12-28T13:09:32.869Z,11.70
2022-12-28T13:10:33.279Z,12.20
2022-12-28T13:11:32.766Z,5.70
2022-12-28T13:12:33.640Z,8.30
2022-12-28T13:13:32.792Z,4.80
2022-12-28T13:14:32.895Z,7.20
2022-12-28T13:15:32.862Z,9.70
2022-12-28T13:16:32.870Z,12.90
2022-12-28T13:17:32.730Z,22.00
2022-12-28T13:18:48.357Z,8.30
2022-12-28T13:19:32.809Z,7.30